createdAt,value
2023-05-08T00:02:28.614Z,1.48
2023-05-08T00:05:11.356Z,1.50
2023-05-08T00:08:01.103Z,1.70
2023-05-08T00:10:45.063Z,1.30
2023-05-08T00:13:27.677Z,1.40
2023-05-08T00:16:11.473Z,1.50
2023-05-08T00:18:54.814Z,1.67
2023-05-08T00:21:37.415Z,1.60
2023-05-08T00:24:19.999Z,1.52
2023-05-08T00:27:04.033Z,1.60
2023-05-08T00:29:46.652Z,1.55
2023-05-08T00:32:29.308Z,1.40
2023-05-08T00:35:12.032Z,1.60
2023-05-08T00:37:54.685Z,1.70
2023-05-08T00:40:37.565Z,1.50
2023-05-08T00:43:25.697Z,1.60
2023-05-08T00:46:09.716Z,1.70
2023-05-08T00:48:52.646Z,1.50
2023-05-08T00:51:35.261Z,1.70
2023-05-08T00:54:18.259Z,1.67
2023-05-08T00:57:01.520Z,1.50
2023-05-08T00:59:47.111Z,1.52
2023-05-08T01:02:31.223Z,1.45
2023-05-08T01:05:14.244Z,1.70
2023-05-08T01:07:57.014Z,1.60
2023-05-08T01:10:49.408Z,1.70
2023-05-08T01:13:35.873Z,1.70
2023-05-08T01:16:34.310Z,1.67
2023-05-08T01:19:38.425Z,1.73
2023-05-08T01:22:25.709Z,1.77
2023-05-08T01:25:40.328Z,1.58
2023-05-08T01:28:34.059Z,1.52
2023-05-08T01:31:25.031Z,1.75
2023-05-08T01:34:10.870Z,1.77
2023-05-08T01:36:55.725Z,1.42
2023-05-08T01:39:42.470Z,1.77
2023-05-08T01:42:27.266Z,2.00
2023-05-08T01:45:12.783Z,1.67
2023-05-08T01:47:59.530Z,1.70
2023-05-08T01:50:45.873Z,1.80
2023-05-08T01:53:31.608Z,1.63
2023-05-08T01:56:16.778Z,1.73
2023-05-08T01:59:00.187Z,1.63
2023-05-08T02:01:43.246Z,2.00
2023-05-08T02:04:26.623Z,1.67
2023-05-08T02:07:11.242Z,1.67
2023-05-08T02:09:55.653Z,1.30
2023-05-08T02:12:38.896Z,1.85
2023-05-08T02:15:22.196Z,2.03
2023-05-08T02:18:06.072Z,1.90
2023-05-08T02:20:50.186Z,1.90
2023-05-08T02:23:34.989Z,1.80
2023-05-08T02:26:17.836Z,1.95
2023-05-08T02:29:01.457Z,1.80
2023-05-08T02:31:45.898Z,1.95
2023-05-08T02:34:29.111Z,1.58
2023-05-08T02:37:12.784Z,1.83
2023-05-08T02:39:57.807Z,1.77
2023-05-08T02:42:40.908Z,1.73
2023-05-08T02:45:27.533Z,1.90
2023-05-08T02:48:13.982Z,1.70
2023-05-08T02:50:59.502Z,1.73
2023-05-08T02:53:46.447Z,1.80
2023-05-08T02:56:35.273Z,1.92
2023-05-08T02:59:19.988Z,1.75
2023-05-08T03:02:07.788Z,1.92
2023-05-08T03:04:52.151Z,2.00
2023-05-08T03:07:38.141Z,1.90
2023-05-08T03:10:22.709Z,1.88
2023-05-08T03:13:09.136Z,1.98
2023-05-08T03:15:55.083Z,1.70
2023-05-08T03:18:43.678Z,1.70
2023-05-08T03:21:28.140Z,1.85
2023-05-08T03:24:11.026Z,2.03
2023-05-08T03:26:53.834Z,1.80
2023-05-08T03:29:39.793Z,1.90
2023-05-08T03:32:22.949Z,1.90
2023-05-08T03:35:06.420Z,2.10
2023-05-08T03:37:49.078Z,2.00
2023-05-08T03:40:31.867Z,1.90
2023-05-08T03:43:14.868Z,2.15
2023-05-08T03:45:58.994Z,2.00
2023-05-08T03:48:42.258Z,1.80
2023-05-08T03:51:25.574Z,2.08
2023-05-08T03:54:08.225Z,1.92
2023-05-08T03:56:51.035Z,1.77
2023-05-08T03:59:39.464Z,1.88
2023-05-08T04:02:28.399Z,2.00
2023-05-08T04:05:18.707Z,1.80
2023-05-08T04:08:04.929Z,1.90
2023-05-08T04:10:50.481Z,2.17
2023-05-08T04:13:38.007Z,2.15
2023-05-08T04:16:22.657Z,2.00
2023-05-08T04:19:08.677Z,1.98
2023-05-08T04:21:55.670Z,1.83
2023-05-08T04:24:41.807Z,1.90
2023-05-08T04:27:24.718Z,1.80
2023-05-08T04:30:09.136Z,2.25
2023-05-08T04:32:51.939Z,2.08
2023-05-08T04:35:36.246Z,2.05
2023-05-08T04:38:19.097Z,2.10
2023-05-08T04:41:02.104Z,2.08
2023-05-08T04:43:44.892Z,2.10
2023-05-08T04:46:27.958Z,2.20
2023-05-08T04:49:11.915Z,2.13
2023-05-08T04:51:56.004Z,2.00
2023-05-08T04:54:39.606Z,2.28
2023-05-08T04:57:22.286Z,2.17
2023-05-08T05:00:06.054Z,2.40
2023-05-08T05:02:52.108Z,2.65
2023-05-08T05:05:37.661Z,2.38
2023-05-08T05:08:23.136Z,1.95
2023-05-08T05:11:06.681Z,2.20
2023-05-08T05:13:49.335Z,2.35
2023-05-08T05:16:32.061Z,2.50
2023-05-08T05:19:14.906Z,2.60
2023-05-08T05:21:57.632Z,2.47
2023-05-08T05:24:42.179Z,2.63
2023-05-08T05:27:24.918Z,2.63
2023-05-08T05:30:08.431Z,2.72
2023-05-08T05:32:51.407Z,2.60
2023-05-08T05:35:34.480Z,2.60
2023-05-08T05:38:17.469Z,2.58
2023-05-08T05:41:01.551Z,2.78
2023-05-08T05:43:44.675Z,2.70
2023-05-08T05:46:32.366Z,2.65
2023-05-08T05:49:17.228Z,2.25
2023-05-08T05:51:59.962Z,2.65
2023-05-08T05:54:42.756Z,2.90
2023-05-08T05:57:27.049Z,2.58
2023-05-08T06:00:11.372Z,2.80
2023-05-08T06:02:57.421Z,2.40
2023-05-08T06:05:40.502Z,2.75
2023-05-08T06:08:23.168Z,2.42
2023-05-08T06:11:05.905Z,2.90
2023-05-08T06:13:50.718Z,2.78
2023-05-08T06:16:35.644Z,2.50
2023-05-08T06:19:18.416Z,3.10
2023-05-08T06:22:01.711Z,2.60
2023-05-08T06:24:44.484Z,2.58
2023-05-08T06:27:27.124Z,2.80
2023-05-08T06:30:11.761Z,2.60
2023-05-08T06:32:54.415Z,3.00
2023-05-08T06:35:37.435Z,2.95
2023-05-08T06:38:20.220Z,3.03
2023-05-08T06:41:02.940Z,3.05
2023-05-08T06:43:45.631Z,3.03
2023-05-08T06:46:31.009Z,2.65
2023-05-08T06:49:13.754Z,3.10
2023-05-08T06:51:57.958Z,3.13
2023-05-08T06:54:41.311Z,3.10
2023-05-08T06:57:26.973Z,2.88
2023-05-08T07:00:10.449Z,3.10
2023-05-08T07:02:54.557Z,2.78
2023-05-08T07:05:37.198Z,2.92
2023-05-08T07:08:19.932Z,3.20
2023-05-08T07:11:02.529Z,3.13
2023-05-08T07:13:52.347Z,3.10
2023-05-08T07:16:35.362Z,3.25
2023-05-08T07:19:22.252Z,3.20
2023-05-08T07:22:05.506Z,3.42
2023-05-08T07:24:48.194Z,3.15
2023-05-08T07:27:31.267Z,3.75
2023-05-08T07:30:14.239Z,3.92
2023-05-08T07:32:57.014Z,3.33
2023-05-08T07:35:41.314Z,3.22
2023-05-08T07:38:23.991Z,3.35
2023-05-08T07:41:07.061Z,3.33
2023-05-08T07:43:49.936Z,3.50
2023-05-08T07:46:32.635Z,3.17
2023-05-08T07:49:15.271Z,3.35
2023-05-08T07:51:59.273Z,3.90
2023-05-08T07:54:42.021Z,3.70
2023-05-08T07:57:24.804Z,3.90
2023-05-08T08:00:08.207Z,4.05
2023-05-08T08:02:57.669Z,3.80
2023-05-08T08:05:40.758Z,4.20
2023-05-08T08:08:24.766Z,3.72
2023-05-08T08:11:07.492Z,4.00
2023-05-08T08:13:50.128Z,3.70
2023-05-08T08:16:32.842Z,4.68
2023-05-08T08:19:15.733Z,4.88
2023-05-08T08:21:58.374Z,3.72
2023-05-08T08:24:42.378Z,3.90
2023-05-08T08:27:25.033Z,3.85
2023-05-08T08:30:16.766Z,3.72
2023-05-08T08:33:02.356Z,3.97
2023-05-08T08:35:45.466Z,4.50
2023-05-08T08:38:28.217Z,4.13
2023-05-08T08:41:14.271Z,3.92
2023-05-08T08:43:57.013Z,3.88
2023-05-08T08:46:45.114Z,3.75
2023-05-08T08:49:31.037Z,3.60
2023-05-08T08:52:16.921Z,3.70
2023-05-08T08:55:01.253Z,4.00
2023-05-08T08:57:48.787Z,3.63
2023-05-08T09:00:32.375Z,3.70
2023-05-08T09:03:15.455Z,3.22
2023-05-08T09:06:00.197Z,3.70
2023-05-08T09:08:43.454Z,3.60
2023-05-08T09:11:26.068Z,3.40
2023-05-08T09:14:10.065Z,3.22
2023-05-08T09:16:52.918Z,3.63
2023-05-08T09:19:35.776Z,3.65
2023-05-08T09:22:18.929Z,3.50
2023-05-08T09:25:03.216Z,3.47
2023-05-08T09:27:45.879Z,3.22
2023-05-08T09:30:29.914Z,3.58
2023-05-08T09:33:12.655Z,3.22
2023-05-08T09:35:55.599Z,3.00
2023-05-08T09:38:39.109Z,3.40
2023-05-08T09:41:24.008Z,2.92
2023-05-08T09:44:07.592Z,3.40
2023-05-08T09:46:51.696Z,2.80
2023-05-08T09:49:34.327Z,2.97
2023-05-08T09:52:16.974Z,2.92
2023-05-08T09:55:00.240Z,3.33
2023-05-08T09:57:53.412Z,3.35
2023-05-08T10:00:39.802Z,3.10
2023-05-08T10:03:23.801Z,2.97
2023-05-08T10:06:13.180Z,3.10
2023-05-08T10:09:12.214Z,3.30
2023-05-08T10:11:55.576Z,3.40
2023-05-08T10:14:38.289Z,2.90
2023-05-08T10:17:26.024Z,2.80
2023-05-08T10:20:12.659Z,3.10
2023-05-08T10:22:56.947Z,2.70
2023-05-08T10:25:47.756Z,3.03
2023-05-08T10:28:33.956Z,2.97
2023-05-08T10:31:18.467Z,2.90
2023-05-08T10:34:02.437Z,2.67
2023-05-08T10:36:47.321Z,3.10
2023-05-08T10:39:32.155Z,2.60
2023-05-08T10:42:15.057Z,2.65
2023-05-08T10:44:58.238Z,2.65
2023-05-08T10:47:46.796Z,2.88
2023-05-08T10:50:43.387Z,2.88
2023-05-08T10:53:32.543Z,2.78
2023-05-08T10:56:15.245Z,2.97
2023-05-08T10:58:58.443Z,2.47
2023-05-08T11:01:41.877Z,2.80
2023-05-08T11:04:24.883Z,2.50
2023-05-08T11:07:07.687Z,2.53
2023-05-08T11:09:52.411Z,2.50
2023-05-08T11:12:36.897Z,2.67
2023-05-08T11:15:36.119Z,2.38
2023-05-08T11:18:18.794Z,2.40
2023-05-08T11:21:03.965Z,2.53
2023-05-08T11:23:57.003Z,2.30
2023-05-08T11:26:41.338Z,2.20
2023-05-08T11:29:23.960Z,2.35
2023-05-08T11:32:06.793Z,1.83
2023-05-08T11:34:52.040Z,1.85
2023-05-08T11:37:38.220Z,2.08
2023-05-08T11:40:35.763Z,1.85
2023-05-08T11:43:27.268Z,1.60
2023-05-08T11:46:16.622Z,1.60
2023-05-08T11:49:01.265Z,1.50
2023-05-08T11:51:45.880Z,1.50
2023-05-08T11:54:30.760Z,1.70
2023-05-08T11:57:13.459Z,1.70
2023-05-08T11:59:57.424Z,1.63
2023-05-08T12:02:40.961Z,1.63
2023-05-08T12:05:27.683Z,1.75
2023-05-08T12:08:10.684Z,1.70
2023-05-08T12:10:53.994Z,1.77
2023-05-08T12:13:36.638Z,1.80
2023-05-08T12:16:21.244Z,1.70
2023-05-08T12:19:03.947Z,1.65
2023-05-08T12:21:47.410Z,1.40
2023-05-08T12:24:30.201Z,1.45
2023-05-08T12:27:13.664Z,1.60
2023-05-08T12:29:56.282Z,1.42
2023-05-08T12:32:41.649Z,1.30
2023-05-08T12:35:25.131Z,1.58
2023-05-08T12:38:08.626Z,1.40
2023-05-08T12:40:52.955Z,1.40
2023-05-08T12:43:36.135Z,1.20
2023-05-08T12:46:18.782Z,1.25
2023-05-08T12:49:04.624Z,1.30
2023-05-08T12:51:47.317Z,1.38
2023-05-08T12:54:33.696Z,1.60
2023-05-08T12:57:17.471Z,1.48
2023-05-08T13:00:05.064Z,1.40
2023-05-08T13:02:54.457Z,1.08
2023-05-08T13:05:39.774Z,1.55
2023-05-08T13:08:30.227Z,1.38
2023-05-08T13:11:12.905Z,1.27
2023-05-08T13:13:55.586Z,1.35
2023-05-08T13:16:44.306Z,1.40
2023-05-08T13:19:27.455Z,1.20
2023-05-08T13:22:11.418Z,1.48
2023-05-08T13:24:54.075Z,1.35
2023-05-08T13:27:36.703Z,1.40
2023-05-08T13:30:20.706Z,1.20
2023-05-08T13:33:03.682Z,1.20
2023-05-08T13:35:46.379Z,1.20
2023-05-08T13:38:30.342Z,1.38
2023-05-08T13:41:13.033Z,1.40
2023-05-08T13:43:55.672Z,1.50
2023-05-08T13:46:38.350Z,1.20
2023-05-08T13:49:24.120Z,1.20
2023-05-08T13:52:06.782Z,1.58
2023-05-08T13:54:50.794Z,1.30
2023-05-08T13:57:33.620Z,1.30
2023-05-08T14:00:16.689Z,1.30
2023-05-08T14:02:59.331Z,1.52
2023-05-08T14:05:42.271Z,1.40
2023-05-08T14:08:24.943Z,1.10
2023-05-08T14:11:08.935Z,1.40
2023-05-08T14:13:51.586Z,1.30
2023-05-08T14:16:34.403Z,1.15
2023-05-08T14:19:17.203Z,1.20
2023-05-08T14:21:59.810Z,1.30
2023-05-08T14:24:42.415Z,1.17
2023-05-08T14:27:26.457Z,1.35
2023-05-08T14:30:09.713Z,1.23
2023-05-08T14:32:52.513Z,1.38
2023-05-08T14:35:35.212Z,1.27
2023-05-08T14:38:17.843Z,1.27
2023-05-08T14:41:04.362Z,1.10
2023-05-08T14:43:50.192Z,1.33
2023-05-08T14:46:32.897Z,1.20
2023-05-08T14:49:22.243Z,1.20
2023-05-08T14:52:11.730Z,1.02
2023-05-08T14:54:54.562Z,0.93
2023-05-08T14:57:37.364Z,1.02
2023-05-08T15:00:21.664Z,1.00
2023-05-08T15:03:04.417Z,1.20
2023-05-08T15:05:47.928Z,1.23
2023-05-08T15:08:30.969Z,0.90
2023-05-08T15:11:13.908Z,1.02
2023-05-08T15:13:56.553Z,1.10
2023-05-08T15:16:40.624Z,1.10
2023-05-08T15:19:23.377Z,1.02
2023-05-08T15:22:05.977Z,0.93
2023-05-08T15:24:51.587Z,1.10
2023-05-08T15:27:34.213Z,1.00
2023-05-08T15:30:17.110Z,1.05
2023-05-08T15:33:01.252Z,0.93
2023-05-08T15:35:43.934Z,1.02
2023-05-08T15:38:26.695Z,0.90
2023-05-08T15:41:12.126Z,1.00
2023-05-08T15:43:56.455Z,1.10
2023-05-08T15:46:39.153Z,0.85
2023-05-08T15:49:25.777Z,1.08
2023-05-08T15:52:08.418Z,1.25
2023-05-08T15:54:51.200Z,1.00
2023-05-08T15:57:33.838Z,0.98
2023-05-08T16:00:16.809Z,1.20
2023-05-08T16:02:59.536Z,1.10
2023-05-08T16:05:43.710Z,1.00
2023-05-08T16:08:29.070Z,0.93
2023-05-08T16:11:11.875Z,0.88
2023-05-08T16:13:54.498Z,1.00
2023-05-08T16:16:38.847Z,0.82
2023-05-08T16:19:21.532Z,1.13
2023-05-08T16:22:05.869Z,0.90
2023-05-08T16:24:48.727Z,0.98
2023-05-08T16:27:31.335Z,1.10
2023-05-08T16:30:14.194Z,1.20
2023-05-08T16:32:57.040Z,0.73
2023-05-08T16:35:40.516Z,0.90
2023-05-08T16:38:24.583Z,0.90
2023-05-08T16:41:09.125Z,0.90
2023-05-08T16:43:51.784Z,0.80
2023-05-08T16:46:34.492Z,1.08
2023-05-08T16:49:17.144Z,0.90
2023-05-08T16:52:00.051Z,0.80
2023-05-08T16:54:44.133Z,1.00
2023-05-08T16:57:27.357Z,0.90
2023-05-08T17:00:10.466Z,0.90
2023-05-08T17:02:53.192Z,0.88
2023-05-08T17:05:35.867Z,1.10
2023-05-08T17:08:18.849Z,1.05
2023-05-08T17:11:03.296Z,0.90
2023-05-08T17:13:46.860Z,0.80
2023-05-08T17:16:29.906Z,1.00
2023-05-08T17:19:12.644Z,0.95
2023-05-08T17:21:56.066Z,0.90
2023-05-08T17:24:40.178Z,0.90
2023-05-08T17:27:24.208Z,0.90
2023-05-08T17:30:08.429Z,0.95
2023-05-08T17:32:51.746Z,1.02
2023-05-08T17:35:34.662Z,0.90
2023-05-08T17:38:17.291Z,0.93
2023-05-08T17:41:00.397Z,0.70
2023-05-08T17:43:44.411Z,0.80
2023-05-08T17:46:27.115Z,1.13
2023-05-08T17:49:09.764Z,1.00
2023-05-08T17:51:52.513Z,0.90
2023-05-08T17:54:35.271Z,0.90
2023-05-08T17:57:18.049Z,1.00
2023-05-08T18:00:02.092Z,0.90
2023-05-08T18:02:44.879Z,0.93
2023-05-08T18:05:27.574Z,0.95
2023-05-08T18:08:10.239Z,0.90
2023-05-08T18:10:52.851Z,1.33
2023-05-08T18:13:35.496Z,1.02
2023-05-08T18:16:21.064Z,1.25
2023-05-08T18:19:03.919Z,1.20
2023-05-08T18:21:46.605Z,1.20
2023-05-08T18:24:29.870Z,1.10
2023-05-08T18:27:12.491Z,1.23
2023-05-08T18:29:55.328Z,1.00
2023-05-08T18:32:39.403Z,1.13
2023-05-08T18:35:22.490Z,1.00
2023-05-08T18:38:05.157Z,1.23
2023-05-08T18:40:50.556Z,1.05
2023-05-08T18:43:33.185Z,1.08
2023-05-08T18:46:17.615Z,1.00
2023-05-08T18:49:01.722Z,1.20
2023-05-08T18:51:44.470Z,1.10
2023-05-08T18:54:27.165Z,1.02
2023-05-08T18:57:09.800Z,1.00
2023-05-08T18:59:52.462Z,1.27
2023-05-08T19:02:35.266Z,1.40
2023-05-08T19:05:19.621Z,1.17
2023-05-08T19:08:03.907Z,1.10
2023-05-08T19:10:46.638Z,1.40
2023-05-08T19:13:29.427Z,1.30
2023-05-08T19:16:12.183Z,1.20
2023-05-08T19:18:54.797Z,1.23
2023-05-08T19:21:38.807Z,1.30
2023-05-08T19:24:24.007Z,1.42
2023-05-08T19:27:06.766Z,1.15
2023-05-08T19:29:49.511Z,1.30
2023-05-08T19:32:32.159Z,1.10
2023-05-08T19:35:14.811Z,1.20
2023-05-08T19:37:58.878Z,1.42
2023-05-08T19:40:55.743Z,1.00
2023-05-08T19:43:39.542Z,1.20
2023-05-08T19:46:22.298Z,1.40
2023-05-08T19:49:05.095Z,1.17
2023-05-08T19:51:48.586Z,1.48
2023-05-08T19:54:32.665Z,1.50
2023-05-08T19:57:15.353Z,1.30
2023-05-08T19:59:58.000Z,1.30
2023-05-08T20:02:40.723Z,1.30
2023-05-08T20:05:23.545Z,1.20
2023-05-08T20:08:06.443Z,1.38
2023-05-08T20:10:50.475Z,1.08
2023-05-08T20:13:33.135Z,1.15
2023-05-08T20:16:15.854Z,1.35
2023-05-08T20:18:58.489Z,1.40
2023-05-08T20:21:41.122Z,1.30
2023-05-08T20:24:23.743Z,1.20
2023-05-08T20:27:08.325Z,1.17
2023-05-08T20:29:50.993Z,1.20
2023-05-08T20:32:33.694Z,1.05
2023-05-08T20:35:16.365Z,1.40
2023-05-08T20:37:59.000Z,1.20
2023-05-08T20:40:42.023Z,1.23
2023-05-08T20:43:26.067Z,1.17
2023-05-08T20:46:08.836Z,1.30
2023-05-08T20:48:52.044Z,1.23
2023-05-08T20:51:36.224Z,1.30
2023-05-08T20:54:18.826Z,1.17
2023-05-08T20:57:01.947Z,1.17
2023-05-08T20:59:47.231Z,1.10
2023-05-08T21:02:33.733Z,1.30
2023-05-08T21:05:16.678Z,1.10
2023-05-08T21:08:02.111Z,1.27
2023-05-08T21:10:44.713Z,1.10
2023-05-08T21:13:27.558Z,1.40
2023-05-08T21:16:11.626Z,1.10
2023-05-08T21:18:58.227Z,1.77
2023-05-08T21:21:41.208Z,1.10
2023-05-08T21:24:25.410Z,1.15
2023-05-08T21:27:08.051Z,1.13
2023-05-08T21:29:50.695Z,1.35
2023-05-08T21:32:34.700Z,1.30
2023-05-08T21:35:17.560Z,1.30
2023-05-08T21:38:00.325Z,1.50
2023-05-08T21:40:42.951Z,1.25
2023-05-08T21:43:25.599Z,1.25
2023-05-08T21:46:09.152Z,1.52
2023-05-08T21:48:53.496Z,1.08
2023-05-08T21:51:36.207Z,1.10
2023-05-08T21:54:20.658Z,1.50
2023-05-08T21:57:03.243Z,1.35
2023-05-08T21:59:45.869Z,1.50
2023-05-08T22:02:28.489Z,1.45
2023-05-08T22:05:12.694Z,1.20
2023-05-08T22:07:55.623Z,1.30
2023-05-08T22:10:38.253Z,1.50
2023-05-08T22:13:22.806Z,1.40
2023-05-08T22:16:06.052Z,1.27
2023-05-08T22:18:48.825Z,1.40
2023-05-08T22:21:32.960Z,1.45
2023-05-08T22:24:15.991Z,1.40
2023-05-08T22:26:58.590Z,1.20
2023-05-08T22:29:41.305Z,1.25
2023-05-08T22:32:24.372Z,1.38
2023-05-08T22:35:07.576Z,1.42
2023-05-08T22:37:51.613Z,1.10
2023-05-08T22:40:34.607Z,1.25
2023-05-08T22:43:17.235Z,1.38
2023-05-08T22:45:59.988Z,1.50
2023-05-08T22:48:42.726Z,1.45
2023-05-08T22:51:25.388Z,1.30
2023-05-08T22:54:09.334Z,1.52
2023-05-08T22:56:51.953Z,1.50
2023-05-08T22:59:34.584Z,1.27
2023-05-08T23:02:17.643Z,1.58
2023-05-08T23:05:00.710Z,1.30
2023-05-08T23:07:43.759Z,1.48
2023-05-08T23:10:28.354Z,1.50
2023-05-08T23:13:11.464Z,1.33
2023-05-08T23:15:54.631Z,1.50
2023-05-08T23:18:37.716Z,1.60
2023-05-08T23:21:20.825Z,1.35
2023-05-08T23:24:05.670Z,1.60
2023-05-08T23:26:50.127Z,1.50
2023-05-08T23:29:33.220Z,1.20
2023-05-08T23:32:16.331Z,1.40
2023-05-08T23:34:59.420Z,1.45
2023-05-08T23:37:42.544Z,1.40
2023-05-08T23:40:25.702Z,1.50
2023-05-08T23:43:10.230Z,1.70
2023-05-08T23:45:53.317Z,1.48
2023-05-08T23:48:36.370Z,1.40
2023-05-08T23:51:19.464Z,1.40
2023-05-08T23:54:02.646Z,1.48
2023-05-08T23:56:45.719Z,1.40
2023-05-08T23:59:30.195Z,1.70
